aviador You're here:

KIPJ Decoded Metar

LINCOLNTON in NC, USA
Report Time2017-07-26 22:10:00
UTC Time2017-07-26 22:28:00
Flight Rules vfr VFR
WindCalm
Visibility9999 m
Phenomena:N/A
Clouds:Scattered 030 Hf
Scattered 039 Hf
Expected CloudBase > 3,200 ft AGL from Temp-Dew spread
CeilingNone
Temp28°C (ISA +15)
Dew Point20°C (62% RH)
Heat Index29.7°C
QNH1020 hPa
Density Alt2,648 ft
Elevation876 ft
Report Wrong Elevation
Raw Report
METAR KIPJ 262210Z AUTO 00000KT 10SM SCT030 SCT039 28/20 A3012 RMK
AO2 T02840203=

Extra information for KIPJ:More info

Metar Taf Metar & Taf Last 4 Metars F.Rules Stats Wind Profile Meteogram Temp Stats Airport Information Weather charts Add Link Nearby VenuesMetar ALERT Operation Metar Decoded Social comments

AIRNAV info for KIPJ